Time;durP1;ratioP1;P1;durP2;ratioP2;P2;SDS_P1;SDS_P2;PMS_P1;PMS_P2;Temp;Humidity;BMP_temperature;BMP_pressure;BME280_temperature;BME280_humidity;BME280_pressure;Samples;Min_cycle;Max_cycle;Signal;HPM_P1;HPM_P2
2021/05/18 00:00:24;;;;;;;1.47;0.90;;;;;;;;;;5099425;28;20288;-69
2021/05/18 00:02:52;;;;;;;0.90;0.90;;;;;;;;;;5099268;28;20665;-70
2021/05/18 00:05:21;;;;;;;2.67;0.90;;;;;;;;;;5099246;28;20304;-70
2021/05/18 00:07:55;;;;;;;0.90;0.90;;;;;;;;;;5098731;28;20284;-70
2021/05/18 00:13:09;;;;;;;1.93;0.80;;;;;;;;;;5108469;28;20706;-70
2021/05/18 00:15:37;;;;;;;1.87;0.90;;;;;;;;;;5119460;28;20319;-69
2021/05/18 00:18:05;;;;;;;0.93;0.70;;;;;;;;;;5119485;28;20555;-69
2021/05/18 00:20:34;;;;;;;0.80;0.80;;;;;;;;;;5119335;28;20295;-69
2021/05/18 00:23:03;;;;;;;1.67;0.73;;;;;;;;;;5119780;27;20204;-70
2021/05/18 00:25:30;;;;;;;1.17;0.80;;;;;;;;;;5119577;28;20307;-68
2021/05/18 00:27:57;;;;;;;1.80;0.80;;;;;;;;;;5119196;28;20314;-69
2021/05/18 00:30:27;;;;;;;0.70;0.70;;;;;;;;;;5119214;28;20204;-68
2021/05/18 00:32:55;;;;;;;1.67;0.93;;;;;;;;;;5115404;27;20201;-68
2021/05/18 00:35:22;;;;;;;4.37;0.77;;;;;;;;;;5105067;28;20791;-70
2021/05/18 00:37:50;;;;;;;0.80;0.80;;;;;;;;;;5112313;28;20315;-69
2021/05/18 00:40:19;;;;;;;3.90;0.87;;;;;;;;;;5119082;28;20236;-68
2021/05/18 00:42:48;;;;;;;2.93;0.90;;;;;;;;;;5118903;28;20291;-70
2021/05/18 00:45:16;;;;;;;2.20;0.80;;;;;;;;;;5118702;28;20668;-70
2021/05/18 00:47:44;;;;;;;2.60;0.77;;;;;;;;;;5103856;28;20306;-70
2021/05/18 00:50:12;;;;;;;1.10;0.90;;;;;;;;;;5098911;28;20288;-68
2021/05/18 00:52:39;;;;;;;2.77;1.10;;;;;;;;;;5098458;28;20284;-69
2021/05/18 00:55:09;;;;;;;1.37;0.73;;;;;;;;;;5098873;28;20308;-69
2021/05/18 01:00:22;;;;;;;0.73;0.60;;;;;;;;;;5098591;28;20216;-69
2021/05/18 01:02:50;;;;;;;1.20;0.70;;;;;;;;;;5098447;28;20273;-68
2021/05/18 01:05:19;;;;;;;3.00;1.13;;;;;;;;;;5098030;28;20232;-70
2021/05/18 01:07:47;;;;;;;1.30;1.20;;;;;;;;;;5098405;28;20236;-70
2021/05/18 01:10:15;;;;;;;4.00;0.80;;;;;;;;;;5097858;28;20296;-70
2021/05/18 01:12:43;;;;;;;0.83;0.80;;;;;;;;;;5097976;28;20292;-68
2021/05/18 01:15:11;;;;;;;1.20;1.10;;;;;;;;;;5097984;28;20328;-70
2021/05/18 01:17:38;;;;;;;5.57;1.20;;;;;;;;;;5097571;28;20261;-70
2021/05/18 01:20:10;;;;;;;1.20;1.10;;;;;;;;;;5097707;28;20213;-69
2021/05/18 01:22:38;;;;;;;0.93;0.80;;;;;;;;;;5098068;28;20288;-70
2021/05/18 01:25:06;;;;;;;0.90;0.90;;;;;;;;;;5097669;28;20673;-69
2021/05/18 01:27:33;;;;;;;2.33;1.27;;;;;;;;;;5098647;28;20216;-69
2021/05/18 01:30:01;;;;;;;2.77;1.07;;;;;;;;;;5098121;28;20209;-69
2021/05/18 01:32:28;;;;;;;1.17;1.07;;;;;;;;;;5098046;28;20247;-69
2021/05/18 01:34:56;;;;;;;1.10;1.00;;;;;;;;;;5111761;28;20774;-69
2021/05/18 01:37:23;;;;;;;1.33;1.10;;;;;;;;;;5107892;28;20217;-69
2021/05/18 01:40:00;;;;;;;1.63;1.20;;;;;;;;;;5117842;28;20645;-69
2021/05/18 01:42:47;;;;;;;3.37;1.17;;;;;;;;;;5118129;28;20291;-70
2021/05/18 01:45:16;;;;;;;4.97;1.30;;;;;;;;;;5117870;28;20290;-69
2021/05/18 01:47:48;;;;;;;2.40;1.20;;;;;;;;;;5103751;28;20284;-69
2021/05/18 01:50:16;;;;;;;2.87;0.90;;;;;;;;;;5098127;28;20740;-69
2021/05/18 01:52:44;;;;;;;2.43;0.80;;;;;;;;;;5097783;28;20247;-70
2021/05/18 01:55:16;;;;;;;3.77;0.90;;;;;;;;;;5097545;28;20260;-70
2021/05/18 01:57:44;;;;;;;0.70;0.70;;;;;;;;;;5097895;28;20232;-70
2021/05/18 02:00:13;;;;;;;1.83;1.27;;;;;;;;;;5098763;28;20363;-70
2021/05/18 02:02:41;;;;;;;3.03;1.00;;;;;;;;;;5097780;28;20206;-69
2021/05/18 02:05:10;;;;;;;1.00;0.80;;;;;;;;;;5097593;28;20661;-69
2021/05/18 02:07:39;;;;;;;2.10;1.00;;;;;;;;;;5097734;28;20243;-67
2021/05/18 02:10:08;;;;;;;1.50;0.90;;;;;;;;;;5097279;28;20749;-67
2021/05/18 02:12:37;;;;;;;1.50;1.40;;;;;;;;;;5097429;28;20759;-67
2021/05/18 02:15:12;;;;;;;4.00;1.00;;;;;;;;;;5097691;28;20228;-67
2021/05/18 02:17:43;;;;;;;1.07;0.90;;;;;;;;;;5104699;28;20228;-67
2021/05/18 02:20:19;;;;;;;3.00;1.00;;;;;;;;;;5117999;28;20211;-67
2021/05/18 02:25:33;;;;;;;2.10;1.20;;;;;;;;;;5117753;28;20346;-66
2021/05/18 02:28:01;;;;;;;3.27;2.00;;;;;;;;;;5117713;28;20576;-66
2021/05/18 02:30:29;;;;;;;3.83;1.90;;;;;;;;;;5120154;28;20211;-67
2021/05/18 02:32:56;;;;;;;2.73;2.20;;;;;;;;;;5118331;28;20669;-66
2021/05/18 02:35:24;;;;;;;3.57;1.90;;;;;;;;;;5106187;28;20274;-66
2021/05/18 02:37:51;;;;;;;2.07;1.87;;;;;;;;;;5114877;28;20315;-66
2021/05/18 02:40:20;;;;;;;2.80;1.77;;;;;;;;;;5121325;28;20205;-66
2021/05/18 02:42:48;;;;;;;2.53;1.30;;;;;;;;;;5121339;27;20253;-67
2021/05/18 02:45:28;;;;;;;3.03;1.67;;;;;;;;;;5121160;28;20331;-67
2021/05/18 02:50:40;;;;;;;2.90;1.83;;;;;;;;;;5100717;28;20399;-66
2021/05/18 02:53:08;;;;;;;1.87;1.57;;;;;;;;;;5100678;28;20639;-67
2021/05/18 02:55:39;;;;;;;2.87;1.90;;;;;;;;;;5100400;28;20712;-66
2021/05/18 02:58:12;;;;;;;1.83;1.70;;;;;;;;;;5107729;28;20234;-67
2021/05/18 03:00:41;;;;;;;2.27;1.50;;;;;;;;;;5120920;28;20291;-66
2021/05/18 03:03:08;;;;;;;1.60;1.50;;;;;;;;;;5121015;28;20244;-67
2021/05/18 03:05:36;;;;;;;1.90;1.50;;;;;;;;;;5120963;28;20312;-67
2021/05/18 03:08:03;;;;;;;1.83;1.53;;;;;;;;;;5121095;28;20233;-67
2021/05/18 03:10:31;;;;;;;3.23;1.80;;;;;;;;;;5118361;28;20288;-69
2021/05/18 03:13:00;;;;;;;1.77;1.67;;;;;;;;;;5108601;28;20201;-69
2021/05/18 03:15:29;;;;;;;2.33;1.90;;;;;;;;;;5107449;28;20776;-67
2021/05/18 03:17:58;;;;;;;4.90;1.53;;;;;;;;;;5108368;28;20304;-69
2021/05/18 03:20:25;;;;;;;1.30;1.20;;;;;;;;;;5107849;28;20607;-68
2021/05/18 03:22:53;;;;;;;1.73;1.57;;;;;;;;;;5109655;28;20204;-69
2021/05/18 03:25:21;;;;;;;3.13;1.60;;;;;;;;;;5105295;28;20301;-69
2021/05/18 03:27:48;;;;;;;4.30;1.77;;;;;;;;;;5107970;28;20235;-69
2021/05/18 03:30:23;;;;;;;2.00;1.50;;;;;;;;;;5107757;28;20236;-69
2021/05/18 03:35:38;;;;;;;2.40;1.57;;;;;;;;;;5109982;28;20256;-69
2021/05/18 03:38:11;;;;;;;3.30;1.70;;;;;;;;;;5107097;28;20281;-69
2021/05/18 03:40:40;;;;;;;2.63;1.47;;;;;;;;;;5098462;28;20209;-69
2021/05/18 03:43:12;;;;;;;1.73;1.50;;;;;;;;;;5097956;28;20269;-69
2021/05/18 03:45:46;;;;;;;1.60;1.50;;;;;;;;;;5102815;28;20246;-69
2021/05/18 03:53:52;;;;;;;1.87;1.50;;;;;;;;;;5098394;28;20247;-69
2021/05/18 04:04:49;;;;;;;2.60;1.60;;;;;;;;;;5119933;28;20267;-69
2021/05/18 04:10:15;;;;;;;2.83;1.40;;;;;;;;;;5120475;27;20292;-70
2021/05/18 04:12:46;;;;;;;1.70;1.57;;;;;;;;;;5119832;28;20287;-69
2021/05/18 04:18:04;;;;;;;1.87;1.73;;;;;;;;;;5119382;28;20250;-69
2021/05/18 04:20:41;;;;;;;3.77;1.90;;;;;;;;;;5119556;28;20215;-69
2021/05/18 04:23:24;;;;;;;1.73;1.43;;;;;;;;;;5119400;28;20262;-70
2021/05/18 04:48:28;;;;;;;4.83;1.70;;;;;;;;;;5116031;28;20283;-69
2021/05/18 04:51:17;;;;;;;2.20;1.40;;;;;;;;;;5118716;28;20245;-70
2021/05/18 04:54:04;;;;;;;4.10;1.90;;;;;;;;;;5118526;28;20228;-69
2021/05/18 04:59:30;;;;;;;3.43;1.67;;;;;;;;;;5082078;28;20303;-69
2021/05/18 05:02:10;;;;;;;10.83;6.40;;;;;;;;;;5118882;28;20280;-69
2021/05/18 05:07:29;;;;;;;3.03;1.67;;;;;;;;;;5118473;28;20215;-69
2021/05/18 05:09:57;;;;;;;5.27;1.73;;;;;;;;;;5118321;28;20306;-69
2021/05/18 05:12:51;;;;;;;3.27;1.97;;;;;;;;;;5118747;28;20205;-69
2021/05/18 05:15:19;;;;;;;4.53;2.00;;;;;;;;;;5118592;28;20228;-69
2021/05/18 05:17:46;;;;;;;3.03;1.87;;;;;;;;;;5118401;28;20220;-69
2021/05/18 05:20:14;;;;;;;9.40;3.27;;;;;;;;;;5118406;28;20212;-70
2021/05/18 05:22:41;;;;;;;6.47;1.93;;;;;;;;;;5116926;28;20654;-71
2021/05/18 05:25:09;;;;;;;11.10;2.53;;;;;;;;;;5111678;28;20572;-69
2021/05/18 05:27:38;;;;;;;3.67;2.20;;;;;;;;;;5106424;28;20221;-69
2021/05/18 05:30:07;;;;;;;5.17;2.00;;;;;;;;;;5104793;27;20220;-70
2021/05/18 05:32:35;;;;;;;4.80;2.17;;;;;;;;;;5103927;28;20205;-69
2021/05/18 05:35:03;;;;;;;2.47;1.90;;;;;;;;;;5106148;28;20267;-70
2021/05/18 05:37:30;;;;;;;5.70;2.23;;;;;;;;;;5108180;28;20257;-70
2021/05/18 05:39:57;;;;;;;5.20;2.83;;;;;;;;;;5103288;28;20320;-69
2021/05/18 05:42:25;;;;;;;7.73;3.33;;;;;;;;;;5106729;28;20224;-69
2021/05/18 05:44:54;;;;;;;4.13;2.70;;;;;;;;;;5106301;28;20312;-69
2021/05/18 05:47:21;;;;;;;6.47;2.90;;;;;;;;;;5107576;28;20201;-68
2021/05/18 05:49:50;;;;;;;6.80;2.83;;;;;;;;;;5103128;28;20653;-69
2021/05/18 05:52:19;;;;;;;6.97;3.00;;;;;;;;;;5097933;28;20205;-68
2021/05/18 05:54:47;;;;;;;7.57;3.27;;;;;;;;;;5097511;28;20229;-67
2021/05/18 05:57:14;;;;;;;4.33;3.23;;;;;;;;;;5097695;28;20269;-68
2021/05/18 05:59:43;;;;;;;7.70;3.63;;;;;;;;;;5101188;28;20861;-66
2021/05/18 06:02:11;;;;;;;6.50;4.17;;;;;;;;;;5102174;28;20284;-68
2021/05/18 06:04:38;;;;;;;13.03;4.30;;;;;;;;;;5108367;28;20550;-67
2021/05/18 06:07:06;;;;;;;7.03;4.20;;;;;;;;;;5111025;28;20276;-68
2021/05/18 06:09:35;;;;;;;8.53;3.73;;;;;;;;;;5112233;28;20280;-69
2021/05/18 06:12:14;;;;;;;5.63;3.17;;;;;;;;;;5109802;28;20283;-68
2021/05/18 06:14:46;;;;;;;6.47;3.40;;;;;;;;;;5111760;28;20308;-68
2021/05/18 06:17:38;;;;;;;4.97;3.40;;;;;;;;;;5113864;28;20232;-67
2021/05/18 06:34:39;;;;;;;5.50;2.90;;;;;;;;;;5108949;28;20215;-65
2021/05/18 06:37:24;;;;;;;7.17;2.97;;;;;;;;;;5109093;28;20280;-66
2021/05/18 06:42:58;;;;;;;6.47;2.27;;;;;;;;;;5100245;28;20206;-67
2021/05/18 06:48:11;;;;;;;8.40;1.80;;;;;;;;;;5109945;28;20197;-71
2021/05/18 06:50:40;;;;;;;4.60;1.70;;;;;;;;;;5108774;28;20303;-71
2021/05/18 06:53:07;;;;;;;5.80;2.00;;;;;;;;;;5108142;28;20201;-73
2021/05/18 06:55:36;;;;;;;4.10;1.80;;;;;;;;;;5100161;28;20285;-73
2021/05/18 06:58:05;;;;;;;8.43;2.53;;;;;;;;;;5104763;28;20267;-73
2021/05/18 07:00:35;;;;;;;7.53;2.20;;;;;;;;;;5121008;28;20236;-73
2021/05/18 07:03:04;;;;;;;9.30;2.60;;;;;;;;;;5110413;28;20205;-74
2021/05/18 07:05:39;;;;;;;4.87;1.90;;;;;;;;;;5118502;28;20708;-74
2021/05/18 07:08:29;;;;;;;10.73;2.30;;;;;;;;;;5120297;28;20284;-74
2021/05/18 07:10:57;;;;;;;7.60;2.10;;;;;;;;;;5115171;28;20673;-73
2021/05/18 07:13:24;;;;;;;9.53;2.07;;;;;;;;;;5105680;28;20221;-73
2021/05/18 07:15:52;;;;;;;5.70;1.77;;;;;;;;;;5105825;28;20256;-73
2021/05/18 07:18:19;;;;;;;4.47;1.83;;;;;;;;;;5106849;28;20261;-73
2021/05/18 07:20:47;;;;;;;3.50;1.90;;;;;;;;;;5102256;28;20206;-74
2021/05/18 07:23:21;;;;;;;7.87;2.33;;;;;;;;;;5119902;28;20212;-74
2021/05/18 07:25:48;;;;;;;4.47;1.93;;;;;;;;;;5120214;28;20224;-74
2021/05/18 07:28:17;;;;;;;8.13;2.23;;;;;;;;;;5119959;28;20200;-74
2021/05/18 07:30:44;;;;;;;7.73;1.90;;;;;;;;;;5119376;28;20201;-73
2021/05/18 07:33:12;;;;;;;5.27;1.33;;;;;;;;;;5113916;28;20233;-74
2021/05/18 07:35:41;;;;;;;5.93;2.13;;;;;;;;;;5110295;28;20654;-74
2021/05/18 07:38:09;;;;;;;3.87;2.00;;;;;;;;;;5106180;28;20225;-74
2021/05/18 07:40:37;;;;;;;4.40;1.80;;;;;;;;;;5099444;28;20288;-73
2021/05/18 07:43:05;;;;;;;5.60;1.80;;;;;;;;;;5099597;28;20209;-73
2021/05/18 07:45:33;;;;;;;9.47;1.50;;;;;;;;;;5102372;28;20313;-70
2021/05/18 07:48:11;;;;;;;3.93;1.30;;;;;;;;;;5105835;28;20292;-70
2021/05/18 07:50:44;;;;;;;3.63;1.40;;;;;;;;;;5109593;28;20232;-70
2021/05/18 07:59:22;;;;;;;4.97;1.20;;;;;;;;;;5074588;28;20328;-70
2021/05/18 08:07:21;;;;;;;4.03;1.07;;;;;;;;;;5119140;28;20243;-74
2021/05/18 08:09:51;;;;;;;4.30;1.00;;;;;;;;;;5118725;28;20296;-73
2021/05/18 08:12:20;;;;;;;2.33;1.00;;;;;;;;;;5104717;28;20255;-73
2021/05/18 08:14:55;;;;;;;3.70;1.37;;;;;;;;;;5098220;28;20305;-73
2021/05/18 08:17:24;;;;;;;5.20;1.30;;;;;;;;;;5098341;28;20291;-73
2021/05/18 08:20:21;;;;;;;4.03;1.40;;;;;;;;;;5099505;28;20312;-74
2021/05/18 08:23:16;;;;;;;3.90;1.40;;;;;;;;;;5099157;28;20270;-73
2021/05/18 09:44:14;;;;;;;4.87;1.23;;;;;;;;;;5109433;28;20211;-70
2021/05/18 10:22:10;;;;;;;6.00;1.53;;;;;;;;;;5104182;28;20232;-72
2021/05/18 10:35:41;;;;;;;4.97;1.03;;;;;;;;;;5100188;28;20240;-73
2021/05/18 10:38:11;;;;;;;2.57;1.00;;;;;;;;;;5109837;28;20280;-73
2021/05/18 10:40:39;;;;;;;2.43;0.80;;;;;;;;;;5118834;28;20307;-74
2021/05/18 10:43:24;;;;;;;3.57;1.33;;;;;;;;;;5120881;28;20268;-73
2021/05/18 10:46:02;;;;;;;4.87;1.97;;;;;;;;;;5120431;28;20605;-68
2021/05/18 10:48:44;;;;;;;7.80;1.77;;;;;;;;;;5103642;28;20284;-70
2021/05/18 10:51:31;;;;;;;5.67;1.47;;;;;;;;;;5099762;28;20202;-71
2021/05/18 10:54:14;;;;;;;5.97;1.40;;;;;;;;;;5099114;28;20664;-70
2021/05/18 10:57:00;;;;;;;6.00;1.43;;;;;;;;;;5087489;28;20241;-74
2021/05/18 10:59:28;;;;;;;1.70;1.10;;;;;;;;;;5089877;28;20257;-72
2021/05/18 11:01:58;;;;;;;3.50;1.10;;;;;;;;;;5102784;28;20300;-73
2021/05/18 11:04:26;;;;;;;6.73;1.53;;;;;;;;;;5099587;28;20343;-73
2021/05/18 11:06:54;;;;;;;5.40;1.40;;;;;;;;;;5100094;28;20205;-74
2021/05/18 11:09:22;;;;;;;5.87;1.00;;;;;;;;;;5099482;28;20240;-72
2021/05/18 11:11:56;;;;;;;3.33;1.17;;;;;;;;;;5100622;28;20379;-72
2021/05/18 11:14:32;;;;;;;4.93;1.43;;;;;;;;;;5099745;28;20288;-72
2021/05/18 11:17:10;;;;;;;2.67;1.23;;;;;;;;;;5099755;28;20580;-71
2021/05/18 11:19:48;;;;;;;4.40;1.20;;;;;;;;;;5107480;28;20311;-70
2021/05/18 11:22:19;;;;;;;4.63;1.40;;;;;;;;;;5119936;28;20217;-72
2021/05/18 11:24:46;;;;;;;6.93;1.93;;;;;;;;;;5118689;28;20248;-73
2021/05/18 11:27:14;;;;;;;3.43;1.07;;;;;;;;;;5119496;28;20625;-72
2021/05/18 11:29:43;;;;;;;3.43;1.60;;;;;;;;;;5119813;27;20303;-72
2021/05/18 11:32:12;;;;;;;4.70;1.37;;;;;;;;;;5119641;28;20265;-71
2021/05/18 11:34:52;;;;;;;3.40;1.07;;;;;;;;;;5105757;28;20599;-73
2021/05/18 11:37:20;;;;;;;2.93;1.00;;;;;;;;;;5102026;28;20224;-72
2021/05/18 11:39:48;;;;;;;4.83;1.13;;;;;;;;;;5098641;28;20297;-72
2021/05/18 11:42:28;;;;;;;6.07;1.20;;;;;;;;;;5099266;28;20201;-71
2021/05/18 11:45:10;;;;;;;2.33;1.03;;;;;;;;;;5098916;28;20320;-72
2021/05/18 11:47:38;;;;;;;1.53;0.90;;;;;;;;;;5099137;28;20213;-71
2021/05/18 11:50:06;;;;;;;2.37;1.13;;;;;;;;;;5099359;28;20209;-72
2021/05/18 11:52:37;;;;;;;8.20;2.47;;;;;;;;;;5107997;28;20292;-73
2021/05/18 11:55:22;;;;;;;4.93;1.30;;;;;;;;;;5119248;28;20755;-72
2021/05/18 11:57:53;;;;;;;3.57;1.27;;;;;;;;;;5119486;28;20209;-72
2021/05/18 12:00:25;;;;;;;6.30;1.10;;;;;;;;;;5119748;28;20252;-71
2021/05/18 12:03:06;;;;;;;4.73;1.13;;;;;;;;;;5118563;28;20212;-72
2021/05/18 12:05:34;;;;;;;4.27;1.20;;;;;;;;;;5119258;28;20309;-71
2021/05/18 12:08:02;;;;;;;9.67;1.30;;;;;;;;;;5118933;28;20209;-71
2021/05/18 12:10:35;;;;;;;3.60;0.87;;;;;;;;;;5119059;28;20205;-73
2021/05/18 12:13:05;;;;;;;4.10;1.03;;;;;;;;;;5115896;28;20197;-72
2021/05/18 12:15:33;;;;;;;3.40;1.33;;;;;;;;;;5098846;28;20225;-72
2021/05/18 12:18:00;;;;;;;5.47;1.00;;;;;;;;;;5098433;28;20574;-72
2021/05/18 12:20:29;;;;;;;1.87;1.17;;;;;;;;;;5099046;28;20269;-72
2021/05/18 12:22:57;;;;;;;5.73;1.00;;;;;;;;;;5098639;28;20202;-72
2021/05/18 12:25:28;;;;;;;4.60;0.90;;;;;;;;;;5098188;28;20229;-72
2021/05/18 12:27:56;;;;;;;3.50;1.13;;;;;;;;;;5098328;28;20210;-72
2021/05/18 12:30:34;;;;;;;5.43;1.20;;;;;;;;;;5098245;28;20233;-72
2021/05/18 12:33:01;;;;;;;3.70;1.07;;;;;;;;;;5098465;28;20288;-73
2021/05/18 12:35:30;;;;;;;3.87;1.23;;;;;;;;;;5112208;28;20307;-72
2021/05/18 12:37:57;;;;;;;3.97;1.03;;;;;;;;;;5112669;28;20298;-72
2021/05/18 12:40:29;;;;;;;1.63;1.00;;;;;;;;;;5118608;28;20232;-72
2021/05/18 12:43:08;;;;;;;3.60;1.30;;;;;;;;;;5118196;28;20215;-72
2021/05/18 12:45:36;;;;;;;4.60;1.30;;;;;;;;;;5118334;28;20704;-72
2021/05/18 12:48:04;;;;;;;5.47;1.37;;;;;;;;;;5100921;28;20202;-72
2021/05/18 12:50:37;;;;;;;8.13;1.30;;;;;;;;;;5098354;28;20285;-72
2021/05/18 12:53:06;;;;;;;5.20;1.13;;;;;;;;;;5098053;28;20295;-72
2021/05/18 12:55:34;;;;;;;3.20;1.30;;;;;;;;;;5098058;28;20233;-72
2021/05/18 12:58:02;;;;;;;5.27;1.10;;;;;;;;;;5097544;28;20296;-72
2021/05/18 13:00:32;;;;;;;3.17;1.20;;;;;;;;;;5097840;28;20251;-72
2021/05/18 13:03:10;;;;;;;4.40;0.90;;;;;;;;;;5104748;28;20205;-71
2021/05/18 13:05:39;;;;;;;2.57;0.90;;;;;;;;;;5118154;28;20258;-71
2021/05/18 13:08:08;;;;;;;2.63;1.00;;;;;;;;;;5117633;28;20247;-71
2021/05/18 13:10:39;;;;;;;4.07;1.13;;;;;;;;;;5118078;28;20294;-71
2021/05/18 13:13:07;;;;;;;2.70;1.60;;;;;;;;;;5118056;28;20211;-72
2021/05/18 13:15:35;;;;;;;3.97;1.20;;;;;;;;;;5117992;28;20233;-72
2021/05/18 13:18:04;;;;;;;2.07;1.23;;;;;;;;;;5117891;28;20227;-72
2021/05/18 13:20:46;;;;;;;3.03;1.30;;;;;;;;;;5118662;28;20228;-71
2021/05/18 13:23:22;;;;;;;5.43;1.43;;;;;;;;;;5118403;28;20204;-71
2021/05/18 13:28:35;;;;;;;2.73;1.10;;;;;;;;;;5097447;28;20204;-72
2021/05/18 13:31:04;;;;;;;6.63;1.20;;;;;;;;;;5097241;28;20305;-72
2021/05/18 13:33:31;;;;;;;3.87;1.00;;;;;;;;;;5097277;28;20209;-73
2021/05/18 13:36:00;;;;;;;3.33;1.50;;;;;;;;;;5109301;28;20266;-73
2021/05/18 13:38:28;;;;;;;5.40;1.10;;;;;;;;;;5104611;28;20301;-73
2021/05/18 13:40:55;;;;;;;5.33;1.00;;;;;;;;;;5097058;28;20319;-71
2021/05/18 13:43:23;;;;;;;3.10;0.93;;;;;;;;;;5097193;28;20550;-72
2021/05/18 13:45:51;;;;;;;5.83;1.10;;;;;;;;;;5097380;28;20729;-73
2021/05/18 13:48:18;;;;;;;3.97;0.93;;;;;;;;;;5097397;28;20281;-72
2021/05/18 13:50:46;;;;;;;2.60;1.00;;;;;;;;;;5097234;28;20236;-72
2021/05/18 13:53:14;;;;;;;3.73;1.33;;;;;;;;;;5097459;28;20205;-72
2021/05/18 13:55:42;;;;;;;0.63;0.63;;;;;;;;;;5096971;28;20590;-71
2021/05/18 13:58:09;;;;;;;2.43;0.83;;;;;;;;;;5097142;28;20212;-73
2021/05/18 14:00:37;;;;;;;1.37;0.70;;;;;;;;;;5103776;28;20303;-72
2021/05/18 14:03:05;;;;;;;1.17;0.70;;;;;;;;;;5117243;28;20616;-72
2021/05/18 14:05:32;;;;;;;1.87;1.10;;;;;;;;;;5117256;28;20260;-73
2021/05/18 14:08:28;;;;;;;3.53;0.87;;;;;;;;;;5095463;28;20250;-72
2021/05/18 14:11:00;;;;;;;4.10;1.27;;;;;;;;;;5093623;28;20244;-72
2021/05/18 14:13:30;;;;;;;1.47;0.80;;;;;;;;;;5096877;28;20223;-71
2021/05/18 14:15:57;;;;;;;10.20;4.50;;;;;;;;;;5097008;28;20313;-73
2021/05/18 14:18:25;;;;;;;5.23;2.87;;;;;;;;;;5097271;28;20292;-72
2021/05/18 14:20:53;;;;;;;3.80;1.87;;;;;;;;;;5097242;28;20229;-72
2021/05/18 14:23:23;;;;;;;4.07;1.30;;;;;;;;;;5103666;28;20212;-71
2021/05/18 14:25:51;;;;;;;4.23;1.17;;;;;;;;;;5118278;28;20228;-72
2021/05/18 14:28:34;;;;;;;6.87;1.77;;;;;;;;;;5120353;27;20224;-72
2021/05/18 14:31:04;;;;;;;3.27;0.87;;;;;;;;;;5121255;28;20250;-72
2021/05/18 14:33:32;;;;;;;5.63;1.60;;;;;;;;;;5121617;28;20204;-72
2021/05/18 14:35:59;;;;;;;4.77;1.00;;;;;;;;;;5115743;28;20229;-72
2021/05/18 14:38:28;;;;;;;2.70;0.90;;;;;;;;;;5100626;28;20231;-72
2021/05/18 14:44:10;;;;;;;1.00;0.47;;;;;;;;;;5100558;28;20573;-72
2021/05/18 14:46:46;;;;;;;1.47;1.00;;;;;;;;;;5112866;28;20255;-72
2021/05/18 14:54:53;;;;;;;1.37;0.83;;;;;;;;;;5100426;28;20260;-72
2021/05/18 14:57:20;;;;;;;4.27;0.70;;;;;;;;;;5108124;28;20723;-72
2021/05/18 14:59:50;;;;;;;1.80;0.50;;;;;;;;;;5120695;28;20284;-72
2021/05/18 15:02:18;;;;;;;1.07;0.63;;;;;;;;;;5120559;28;20717;-72
2021/05/18 15:04:46;;;;;;;1.13;0.70;;;;;;;;;;5120445;28;20287;-72
2021/05/18 15:07:13;;;;;;;1.27;0.87;;;;;;;;;;5120826;27;20213;-72
2021/05/18 15:09:41;;;;;;;1.90;0.93;;;;;;;;;;5120352;28;20628;-72
2021/05/18 15:12:09;;;;;;;1.33;0.70;;;;;;;;;;5120632;28;20250;-72
2021/05/18 15:14:36;;;;;;;3.03;1.00;;;;;;;;;;5120528;28;20263;-72
2021/05/18 15:17:05;;;;;;;2.33;1.17;;;;;;;;;;5120627;28;20343;-72
2021/05/18 15:19:32;;;;;;;3.73;0.90;;;;;;;;;;5120260;28;20295;-72
2021/05/18 15:22:00;;;;;;;2.70;1.17;;;;;;;;;;5120509;28;20232;-72
2021/05/18 15:24:28;;;;;;;4.77;1.30;;;;;;;;;;5120063;28;20627;-72
2021/05/18 15:26:55;;;;;;;2.80;1.07;;;;;;;;;;5120471;28;20362;-72
2021/05/18 15:29:23;;;;;;;4.60;1.13;;;;;;;;;;5119069;28;20197;-72
2021/05/18 15:31:51;;;;;;;3.33;1.30;;;;;;;;;;5120387;27;20201;-72
2021/05/18 15:34:19;;;;;;;3.27;1.10;;;;;;;;;;5120060;28;20204;-72
2021/05/18 15:36:47;;;;;;;2.03;0.93;;;;;;;;;;5107648;28;20289;-72
2021/05/18 15:39:15;;;;;;;1.77;1.10;;;;;;;;;;5098736;28;20668;-72
2021/05/18 15:41:44;;;;;;;3.23;0.90;;;;;;;;;;5099565;28;20279;-72
2021/05/18 15:44:12;;;;;;;2.73;0.83;;;;;;;;;;5099460;28;20209;-72
2021/05/18 15:46:39;;;;;;;1.50;1.00;;;;;;;;;;5111700;28;20243;-72
2021/05/18 15:49:07;;;;;;;1.53;0.77;;;;;;;;;;5099589;27;20676;-72
2021/05/18 15:51:35;;;;;;;2.20;1.10;;;;;;;;;;5099473;28;20212;-72
2021/05/18 15:54:04;;;;;;;2.03;0.83;;;;;;;;;;5098645;28;20220;-73
2021/05/18 15:56:31;;;;;;;2.30;1.23;;;;;;;;;;5099248;28;20239;-72
2021/05/18 15:58:59;;;;;;;1.93;1.00;;;;;;;;;;5099104;28;20570;-72
2021/05/18 16:01:27;;;;;;;1.30;0.90;;;;;;;;;;5099173;28;20236;-71
2021/05/18 16:03:54;;;;;;;2.57;1.17;;;;;;;;;;5099297;28;20237;-73
2021/05/18 16:06:22;;;;;;;3.00;1.00;;;;;;;;;;5101773;28;20224;-71
2021/05/18 16:09:00;;;;;;;2.23;1.13;;;;;;;;;;5117457;28;20230;-71
2021/05/18 16:11:28;;;;;;;2.33;0.90;;;;;;;;;;5117836;28;20787;-71
2021/05/18 16:13:55;;;;;;;1.53;1.30;;;;;;;;;;5118693;28;20216;-71
2021/05/18 16:16:26;;;;;;;1.00;0.80;;;;;;;;;;5119542;28;20256;-72
2021/05/18 16:18:55;;;;;;;2.17;0.83;;;;;;;;;;5119358;28;20289;-71
2021/05/18 16:21:25;;;;;;;1.73;0.80;;;;;;;;;;5118859;28;20592;-71
2021/05/18 16:24:00;;;;;;;1.93;0.80;;;;;;;;;;5118583;28;20258;-71
2021/05/18 16:26:33;;;;;;;2.00;1.00;;;;;;;;;;5118892;28;20209;-72
2021/05/18 16:29:02;;;;;;;2.30;1.10;;;;;;;;;;5112208;28;20213;-71
2021/05/18 16:31:31;;;;;;;2.83;1.10;;;;;;;;;;5098769;28;20202;-71
2021/05/18 16:34:00;;;;;;;2.10;1.80;;;;;;;;;;5098457;28;20687;-71
2021/05/18 16:36:31;;;;;;;1.37;1.07;;;;;;;;;;5098281;28;20210;-71
2021/05/18 16:39:00;;;;;;;0.90;0.90;;;;;;;;;;5098132;28;20210;-71
2021/05/18 16:41:33;;;;;;;3.13;1.30;;;;;;;;;;5098042;28;20233;-71
2021/05/18 16:44:01;;;;;;;2.03;1.00;;;;;;;;;;5098411;28;20210;-71
2021/05/18 16:46:29;;;;;;;1.37;0.90;;;;;;;;;;5105843;28;20720;-72
2021/05/18 16:48:57;;;;;;;2.57;0.90;;;;;;;;;;5100299;28;20202;-71
2021/05/18 16:51:24;;;;;;;3.73;1.20;;;;;;;;;;5097755;28;20665;-71
2021/05/18 16:53:53;;;;;;;2.80;0.90;;;;;;;;;;5097414;28;20236;-71
2021/05/18 16:56:22;;;;;;;0.90;0.80;;;;;;;;;;5097462;28;20229;-72
2021/05/18 16:58:51;;;;;;;2.10;1.00;;;;;;;;;;5097595;28;20296;-73
2021/05/18 17:01:19;;;;;;;1.60;1.03;;;;;;;;;;5108653;28;20259;-72
2021/05/18 17:04:06;;;;;;;2.90;1.00;;;;;;;;;;5106279;28;20201;-72
2021/05/18 17:06:34;;;;;;;1.73;0.70;;;;;;;;;;5112270;28;20213;-72
2021/05/18 17:09:03;;;;;;;2.07;0.83;;;;;;;;;;5111325;28;20198;-71
2021/05/18 17:11:31;;;;;;;1.43;1.07;;;;;;;;;;5118083;28;20603;-73
2021/05/18 17:13:59;;;;;;;1.73;1.03;;;;;;;;;;5118220;28;20258;-72
2021/05/18 17:16:26;;;;;;;3.17;1.07;;;;;;;;;;5107926;28;20194;-71
2021/05/18 17:18:54;;;;;;;4.03;0.93;;;;;;;;;;5097678;28;20204;-71
2021/05/18 17:21:21;;;;;;;1.30;0.90;;;;;;;;;;5097334;28;20222;-72
2021/05/18 17:23:49;;;;;;;1.20;0.90;;;;;;;;;;5107720;28;20216;-71
2021/05/18 17:26:17;;;;;;;4.00;1.30;;;;;;;;;;5111997;28;20307;-70
2021/05/18 17:28:45;;;;;;;1.83;0.93;;;;;;;;;;5109382;28;20197;-72
2021/05/18 17:31:15;;;;;;;2.17;1.10;;;;;;;;;;5117680;28;20227;-73
2021/05/18 17:33:42;;;;;;;1.57;0.83;;;;;;;;;;5117080;28;20239;-73
2021/05/18 17:36:11;;;;;;;2.00;1.20;;;;;;;;;;5108445;28;20696;-73
2021/05/18 17:38:38;;;;;;;2.30;0.90;;;;;;;;;;5097686;28;20208;-72
2021/05/18 17:41:06;;;;;;;1.67;1.23;;;;;;;;;;5097785;28;20208;-72
2021/05/18 17:43:35;;;;;;;2.77;1.20;;;;;;;;;;5097413;28;20205;-71
2021/05/18 17:46:04;;;;;;;2.87;1.30;;;;;;;;;;5104806;28;20248;-72
2021/05/18 17:48:31;;;;;;;2.00;1.20;;;;;;;;;;5104198;28;20209;-72
2021/05/18 17:50:59;;;;;;;1.80;1.10;;;;;;;;;;5114458;28;20687;-71
2021/05/18 17:53:26;;;;;;;1.67;1.10;;;;;;;;;;5097218;28;20279;-72
2021/05/18 17:55:54;;;;;;;4.57;1.10;;;;;;;;;;5107952;28;20257;-73
2021/05/18 17:58:22;;;;;;;3.70;1.13;;;;;;;;;;5106669;28;20198;-72
2021/05/18 18:00:49;;;;;;;4.60;1.37;;;;;;;;;;5098640;28;20215;-73
2021/05/18 18:03:19;;;;;;;3.97;1.30;;;;;;;;;;5101281;28;20221;-75
2021/05/18 18:05:47;;;;;;;3.77;1.20;;;;;;;;;;5101784;28;20251;-72
2021/05/18 18:08:14;;;;;;;3.87;1.60;;;;;;;;;;5101491;28;20231;-73
2021/05/18 18:10:48;;;;;;;3.60;1.70;;;;;;;;;;5101706;28;20209;-72
2021/05/18 18:13:16;;;;;;;2.57;1.40;;;;;;;;;;5101172;28;20202;-73
2021/05/18 18:15:44;;;;;;;0.80;0.80;;;;;;;;;;5101599;28;20225;-72
2021/05/18 18:18:11;;;;;;;2.90;1.00;;;;;;;;;;5108254;28;20204;-73
2021/05/18 18:20:40;;;;;;;1.20;1.10;;;;;;;;;;5121517;28;20277;-74
2021/05/18 18:23:08;;;;;;;4.73;2.97;;;;;;;;;;5116520;28;20821;-74
2021/05/18 18:25:35;;;;;;;2.40;1.50;;;;;;;;;;5108999;28;20237;-74
2021/05/18 18:28:03;;;;;;;1.33;1.17;;;;;;;;;;5120665;28;20193;-72
2021/05/18 18:30:31;;;;;;;3.17;1.50;;;;;;;;;;5106325;28;20210;-72
2021/05/18 18:32:58;;;;;;;2.73;1.33;;;;;;;;;;5101172;28;20197;-71
2021/05/18 18:35:26;;;;;;;1.43;1.27;;;;;;;;;;5110311;28;20228;-72
2021/05/18 18:37:55;;;;;;;4.33;1.30;;;;;;;;;;5100797;28;20198;-72
2021/05/18 18:40:22;;;;;;;2.80;1.20;;;;;;;;;;5101044;28;20242;-73
2021/05/18 18:42:50;;;;;;;2.23;1.37;;;;;;;;;;5111474;28;20256;-73
2021/05/18 18:45:17;;;;;;;3.90;1.20;;;;;;;;;;5108709;28;20339;-73
2021/05/18 18:47:45;;;;;;;2.73;1.00;;;;;;;;;;5100819;28;20213;-73
2021/05/18 18:50:14;;;;;;;1.97;1.10;;;;;;;;;;5100720;28;20293;-73